Phoenix, Arizona
Traffic Map
Current Weather Conditions
Phoenix, Arizona
Few Clouds
Few Clouds
28°
Feels Like: 28°
Wind Chill: 28° Ceiling: Unl
Heat Index: 28° Visibility: 10mi
Dew Point: 11° Wind: 0mph
Humidity: 35% Direction: ° ()
Pressure: 29.92in Gusts: 0mph
Raw Report DataKPHX 230251Z 00000KT 10SM FEW250 28/11 A2992 RMK AO2 SLP116 T02780111 53012
Traffic Incident Summary
Active as of:
Severity:
Category:
InformationThere was an issue retrieving the traffic information for this location. Please try a different location or try again shortly.
Advertisements
Track Severe Weather on mobile